Terminal Aerodrome Forecast
Issued by NWS Louisville, KY

Home | Current Version | Previous Version | Text Only | Print | Product List | Glossary On
Versions: 1 2 3 4 5 6 7 8 9 10 11 12 13 14 15 16 17 18
000
FTUS43 KLMK 011700
TAFBWG
TAF
KBWG 011739Z 0118/0218 18015G22KT 4SM -RA BR OVC018
      TEMPO 0118/0121 2SM -RA BR OVC012
     FM012100 20012G20KT 4SM -RA BR BKN008 OVC015
     FM020200 25012G25KT 6SM BR VCSH OVC018
     FM021000 29015G25KT P6SM OVC025
     FM021500 31014G20KT P6SM BKN025=

USA.gov is the U.S. government's official web portal to all federal, state and local government web resources and services.